Time;durP1;ratioP1;P1;durP2;ratioP2;P2;SDS_P1;SDS_P2;PMS_P1;PMS_P2;Temp;Humidity;BMP_temperature;BMP_pressure;BME280_temperature;BME280_humidity;BME280_pressure;Samples;Min_cycle;Max_cycle;Signal;HPM_P1;HPM_P2
2023/01/03 00:01:38;;;;;;;38.38;19.20;;;;;;;;;;4984677;28;20030;-76
2023/01/03 00:04:04;;;;;;;46.63;21.95;;;;;;;;;;4979968;28;20045;-76
2023/01/03 00:06:34;;;;;;;43.92;20.92;;;;;;;;;;4984059;28;20045;-76
2023/01/03 00:09:00;;;;;;;44.22;20.75;;;;;;;;;;4985561;28;20086;-76
2023/01/03 00:14:14;;;;;;;38.80;20.92;;;;;;;;;;4984637;28;20455;-75
2023/01/03 00:16:41;;;;;;;42.63;22.50;;;;;;;;;;4980873;28;20049;-74
2023/01/03 00:19:08;;;;;;;44.22;22.83;;;;;;;;;;4986112;28;20057;-75
2023/01/03 00:21:34;;;;;;;37.22;21.15;;;;;;;;;;4966649;28;20030;-75
2023/01/03 00:24:00;;;;;;;38.38;20.10;;;;;;;;;;4985711;28;20027;-75
2023/01/03 00:26:27;;;;;;;37.08;20.90;;;;;;;;;;4983808;28;20023;-75
2023/01/03 00:28:53;;;;;;;41.42;21.75;;;;;;;;;;4984201;28;20026;-75
2023/01/03 00:31:19;;;;;;;38.38;20.48;;;;;;;;;;4967274;28;20066;-75
2023/01/03 00:33:45;;;;;;;41.67;20.17;;;;;;;;;;4984505;28;20030;-75
2023/01/03 00:36:11;;;;;;;41.53;20.92;;;;;;;;;;4983494;28;21838;-75
2023/01/03 00:38:38;;;;;;;40.78;21.05;;;;;;;;;;4996663;28;20776;-74
2023/01/03 00:41:09;;;;;;;43.33;21.98;;;;;;;;;;4983858;28;20451;-75
2023/01/03 00:43:36;;;;;;;39.65;21.70;;;;;;;;;;4978920;28;20053;-75
2023/01/03 00:46:02;;;;;;;38.03;22.25;;;;;;;;;;4980855;28;20073;-75
2023/01/03 00:48:29;;;;;;;35.40;20.42;;;;;;;;;;4983798;28;20030;-75
2023/01/03 00:50:55;;;;;;;37.67;20.90;;;;;;;;;;4985971;28;20038;-75
2023/01/03 00:53:21;;;;;;;44.22;21.50;;;;;;;;;;4962644;28;20129;-74
2023/01/03 00:55:48;;;;;;;36.85;20.55;;;;;;;;;;4966585;28;20106;-74
2023/01/03 00:58:14;;;;;;;38.72;20.55;;;;;;;;;;4982716;28;20050;-77
2023/01/03 01:00:41;;;;;;;40.08;22.73;;;;;;;;;;4981678;28;20046;-74
2023/01/03 01:03:08;;;;;;;36.47;21.52;;;;;;;;;;4982109;28;20117;-77
2023/01/03 01:05:35;;;;;;;42.17;21.50;;;;;;;;;;4983336;28;20065;-74
2023/01/03 01:08:01;;;;;;;37.92;20.73;;;;;;;;;;4968555;28;20100;-74
2023/01/03 01:10:28;;;;;;;33.20;20.58;;;;;;;;;;4983952;28;20058;-75
2023/01/03 01:12:55;;;;;;;38.08;19.60;;;;;;;;;;4987523;28;20039;-75
2023/01/03 01:15:22;;;;;;;36.58;20.15;;;;;;;;;;4985644;28;20216;-77
2023/01/03 01:17:49;;;;;;;38.65;20.38;;;;;;;;;;4981948;28;20180;-76
2023/01/03 01:20:16;;;;;;;37.40;20.85;;;;;;;;;;4993991;28;20058;-76
2023/01/03 01:22:42;;;;;;;34.13;20.85;;;;;;;;;;4990478;28;20450;-77
2023/01/03 01:25:08;;;;;;;38.22;21.05;;;;;;;;;;4995266;28;20100;-76
2023/01/03 01:27:34;;;;;;;33.95;19.75;;;;;;;;;;4985485;28;20030;-76
2023/01/03 01:30:01;;;;;;;36.08;22.02;;;;;;;;;;4982823;28;20549;-76
2023/01/03 01:32:27;;;;;;;41.00;21.35;;;;;;;;;;4980401;28;20045;-75
2023/01/03 01:34:53;;;;;;;37.55;22.27;;;;;;;;;;4991580;28;20125;-76
2023/01/03 01:37:19;;;;;;;36.22;21.40;;;;;;;;;;4989160;28;20574;-77
2023/01/03 01:39:45;;;;;;;47.08;22.75;;;;;;;;;;4990976;28;20092;-76
2023/01/03 01:45:01;;;;;;;35.60;22.13;;;;;;;;;;4984367;28;20042;-77
2023/01/03 01:47:33;;;;;;;36.80;21.93;;;;;;;;;;4983052;28;20045;-76
2023/01/03 01:50:17;;;;;;;38.47;21.58;;;;;;;;;;4975132;28;20342;-77
2023/01/03 01:52:52;;;;;;;42.03;23.10;;;;;;;;;;4984835;28;20055;-77
2023/01/03 01:55:21;;;;;;;49.35;22.70;;;;;;;;;;4988770;28;20436;-76
2023/01/03 01:57:47;;;;;;;54.17;25.10;;;;;;;;;;4970370;28;20092;-76
2023/01/03 02:00:13;;;;;;;42.63;23.02;;;;;;;;;;4990271;28;20099;-77
2023/01/03 02:02:45;;;;;;;43.30;22.55;;;;;;;;;;4990394;28;20118;-76
2023/01/03 02:05:12;;;;;;;42.50;24.00;;;;;;;;;;4988258;28;20113;-76
2023/01/03 02:07:39;;;;;;;47.50;23.25;;;;;;;;;;4989067;28;20096;-77
2023/01/03 02:10:06;;;;;;;45.75;22.33;;;;;;;;;;4989859;28;20581;-76
2023/01/03 02:15:28;;;;;;;43.55;22.33;;;;;;;;;;4989895;28;20034;-75
2023/01/03 02:18:13;;;;;;;53.22;24.25;;;;;;;;;;4987758;28;20026;-74
2023/01/03 02:20:42;;;;;;;47.55;23.67;;;;;;;;;;4991454;28;20027;-74
2023/01/03 02:23:16;;;;;;;45.90;24.60;;;;;;;;;;4984743;28;20488;-77
2023/01/03 02:26:20;;;;;;;56.63;25.48;;;;;;;;;;4991074;28;20018;-74
2023/01/03 02:28:49;;;;;;;46.92;24.55;;;;;;;;;;4967923;28;20432;-77
2023/01/03 02:31:39;;;;;;;52.80;25.35;;;;;;;;;;4951259;28;20198;-76
2023/01/03 02:34:20;;;;;;;49.28;25.05;;;;;;;;;;4965842;28;20074;-76
2023/01/03 02:36:49;;;;;;;69.80;26.67;;;;;;;;;;4988747;28;20407;-75
2023/01/03 02:39:44;;;;;;;53.63;25.10;;;;;;;;;;4972990;28;20053;-76
2023/01/03 02:45:02;;;;;;;66.53;28.48;;;;;;;;;;4988988;28;20437;-76
2023/01/03 02:47:30;;;;;;;68.03;29.20;;;;;;;;;;4986786;28;20484;-77
2023/01/03 02:49:58;;;;;;;61.85;28.85;;;;;;;;;;4989818;28;20041;-74
2023/01/03 02:52:26;;;;;;;69.97;32.35;;;;;;;;;;4987914;28;20045;-77
2023/01/03 02:55:03;;;;;;;107.78;36.78;;;;;;;;;;4989611;28;20039;-76
2023/01/03 02:57:31;;;;;;;103.78;36.53;;;;;;;;;;4987252;28;20106;-74
2023/01/03 02:59:59;;;;;;;121.60;38.90;;;;;;;;;;4989406;28;20026;-77
2023/01/03 03:02:28;;;;;;;95.53;36.47;;;;;;;;;;4982274;28;20039;-74
2023/01/03 03:04:56;;;;;;;95.90;35.10;;;;;;;;;;4985785;28;20023;-75
2023/01/03 03:07:22;;;;;;;264.88;45.63;;;;;;;;;;4985193;28;20034;-75
2023/01/03 03:15:23;;;;;;;731.40;72.95;;;;;;;;;;4986877;28;20041;-75
2023/01/03 03:17:53;;;;;;;760.03;71.88;;;;;;;;;;4984057;28;20037;-75
2023/01/03 03:26:08;;;;;;;897.40;74.07;;;;;;;;;;4986754;28;20026;-75
2023/01/03 03:28:36;;;;;;;594.15;67.35;;;;;;;;;;4986942;28;20113;-75
2023/01/03 03:31:13;;;;;;;903.95;77.50;;;;;;;;;;4987094;28;20034;-75
2023/01/03 03:33:43;;;;;;;1009.33;81.68;;;;;;;;;;4982446;28;20035;-76
2023/01/03 03:36:16;;;;;;;677.75;73.38;;;;;;;;;;4983531;28;20026;-76
2023/01/03 03:38:44;;;;;;;984.60;86.93;;;;;;;;;;4984905;28;20045;-75
2023/01/03 03:47:06;;;;;;;696.92;77.07;;;;;;;;;;4986358;28;20590;-76
2023/01/03 03:49:37;;;;;;;872.88;78.40;;;;;;;;;;4984346;28;20491;-75
2023/01/03 03:52:04;;;;;;;553.28;63.38;;;;;;;;;;4984711;28;20015;-75
2023/01/03 03:54:33;;;;;;;785.00;75.93;;;;;;;;;;4984573;28;20117;-76
2023/01/03 03:57:03;;;;;;;653.95;68.18;;;;;;;;;;4982411;28;20030;-76
2023/01/03 03:59:30;;;;;;;362.23;48.13;;;;;;;;;;4984512;28;20113;-76
2023/01/03 04:01:58;;;;;;;483.00;59.00;;;;;;;;;;4966334;28;20034;-76
2023/01/03 04:04:28;;;;;;;501.88;57.35;;;;;;;;;;4981992;28;20121;-76
2023/01/03 04:06:54;;;;;;;711.42;69.03;;;;;;;;;;4984715;28;20340;-76
2023/01/03 04:09:20;;;;;;;640.22;64.13;;;;;;;;;;4986160;28;20041;-76
2023/01/03 04:11:47;;;;;;;758.83;71.10;;;;;;;;;;4985291;28;20046;-76
2023/01/03 04:14:13;;;;;;;669.08;69.93;;;;;;;;;;4985186;28;20150;-76
2023/01/03 04:16:42;;;;;;;778.08;76.15;;;;;;;;;;4982925;28;20041;-78
2023/01/03 04:19:08;;;;;;;712.72;73.75;;;;;;;;;;4983813;28;20088;-78
2023/01/03 04:21:35;;;;;;;459.40;62.30;;;;;;;;;;4985607;28;20038;-74
2023/01/03 04:24:02;;;;;;;768.65;75.25;;;;;;;;;;4984852;28;20045;-77
2023/01/03 04:26:28;;;;;;;600.00;70.13;;;;;;;;;;4986569;28;20038;-74
2023/01/03 04:28:54;;;;;;;584.03;71.72;;;;;;;;;;4984753;28;20121;-77
2023/01/03 04:31:20;;;;;;;484.48;65.93;;;;;;;;;;4991325;28;20180;-77
2023/01/03 04:33:46;;;;;;;625.70;75.10;;;;;;;;;;4983983;28;20038;-77
2023/01/03 04:36:13;;;;;;;498.20;74.20;;;;;;;;;;5003764;28;20033;-75
2023/01/03 04:38:39;;;;;;;485.92;77.35;;;;;;;;;;4981861;28;20046;-74
2023/01/03 04:41:06;;;;;;;437.42;74.53;;;;;;;;;;4980294;28;20038;-75
2023/01/03 04:46:17;;;;;;;368.63;73.70;;;;;;;;;;4988218;28;20081;-77
2023/01/03 04:48:43;;;;;;;398.50;78.88;;;;;;;;;;4994207;28;20038;-77
2023/01/03 04:51:10;;;;;;;268.95;71.90;;;;;;;;;;4976876;28;20058;-76
2023/01/03 04:53:36;;;;;;;287.60;73.82;;;;;;;;;;4990740;28;20065;-76
2023/01/03 04:56:02;;;;;;;337.65;73.50;;;;;;;;;;4985608;28;20032;-75
2023/01/03 04:58:28;;;;;;;356.75;73.97;;;;;;;;;;4980071;28;20058;-76
2023/01/03 05:01:01;;;;;;;374.38;75.80;;;;;;;;;;4984346;28;20062;-76
2023/01/03 05:03:28;;;;;;;292.08;71.25;;;;;;;;;;4982121;28;20368;-77
2023/01/03 05:06:05;;;;;;;356.45;77.15;;;;;;;;;;4985761;28;20050;-76
2023/01/03 05:08:31;;;;;;;311.70;76.05;;;;;;;;;;4983185;28;20033;-76
2023/01/03 05:10:57;;;;;;;338.25;77.25;;;;;;;;;;4981901;28;20058;-77
2023/01/03 05:13:24;;;;;;;370.05;81.63;;;;;;;;;;4980754;28;20045;-76
2023/01/03 05:15:50;;;;;;;350.48;85.03;;;;;;;;;;4982806;28;20042;-76
2023/01/03 05:18:16;;;;;;;340.25;86.15;;;;;;;;;;4983832;28;20523;-76
2023/01/03 05:26:17;;;;;;;295.42;85.13;;;;;;;;;;4983392;28;20057;-75
2023/01/03 05:28:45;;;;;;;298.55;86.25;;;;;;;;;;4999181;28;20031;-75
2023/01/03 05:31:11;;;;;;;359.02;88.97;;;;;;;;;;4980434;28;20412;-75
2023/01/03 05:33:38;;;;;;;442.20;91.15;;;;;;;;;;4984447;28;20054;-76
2023/01/03 05:36:05;;;;;;;348.45;90.90;;;;;;;;;;4982717;28;20033;-75
2023/01/03 05:38:31;;;;;;;305.98;89.05;;;;;;;;;;4984608;28;20069;-75
2023/01/03 05:40:57;;;;;;;293.48;89.68;;;;;;;;;;4990289;28;20034;-76
2023/01/03 05:43:23;;;;;;;276.30;92.78;;;;;;;;;;4982186;28;20033;-76
2023/01/03 05:45:50;;;;;;;260.92;90.75;;;;;;;;;;4980840;28;20038;-76
2023/01/03 05:48:17;;;;;;;266.65;91.85;;;;;;;;;;4981494;28;20058;-76
2023/01/03 05:50:43;;;;;;;250.88;91.65;;;;;;;;;;4983167;28;20047;-76
2023/01/03 05:53:10;;;;;;;270.67;92.65;;;;;;;;;;4984202;28;20263;-76
2023/01/03 05:55:37;;;;;;;255.50;91.15;;;;;;;;;;4984187;28;20034;-76
2023/01/03 05:58:04;;;;;;;265.33;90.53;;;;;;;;;;4981199;28;20038;-76
2023/01/03 06:00:30;;;;;;;287.60;96.03;;;;;;;;;;4985667;28;20026;-76
2023/01/03 06:02:56;;;;;;;278.52;96.72;;;;;;;;;;4982761;28;20104;-75
2023/01/03 06:05:22;;;;;;;272.33;96.53;;;;;;;;;;4966406;28;20027;-76
2023/01/03 06:07:49;;;;;;;279.67;98.05;;;;;;;;;;4987584;28;20133;-75
2023/01/03 06:10:15;;;;;;;268.15;95.88;;;;;;;;;;4984932;28;20615;-75
2023/01/03 06:12:41;;;;;;;283.10;96.82;;;;;;;;;;4978924;28;20046;-75
2023/01/03 06:15:08;;;;;;;267.85;99.97;;;;;;;;;;4984259;28;20038;-74
2023/01/03 06:20:20;;;;;;;306.10;100.75;;;;;;;;;;4981416;28;20566;-77
2023/01/03 06:22:46;;;;;;;301.83;102.88;;;;;;;;;;4983243;28;20085;-77
2023/01/03 06:25:12;;;;;;;282.40;101.10;;;;;;;;;;4980803;28;20038;-75
2023/01/03 06:27:39;;;;;;;297.08;107.45;;;;;;;;;;4979783;28;20026;-74
2023/01/03 06:30:05;;;;;;;279.67;106.40;;;;;;;;;;4982767;28;20113;-75
2023/01/03 06:32:31;;;;;;;272.10;104.68;;;;;;;;;;4980841;28;20104;-75
2023/01/03 06:34:58;;;;;;;266.75;103.07;;;;;;;;;;4981412;28;20026;-77
2023/01/03 06:37:24;;;;;;;266.88;99.03;;;;;;;;;;4982086;28;20041;-74
2023/01/03 06:39:50;;;;;;;272.77;101.90;;;;;;;;;;4981882;28;20034;-75
2023/01/03 06:53:16;;;;;;;216.77;93.95;;;;;;;;;;4983095;28;20069;-77
2023/01/03 06:55:43;;;;;;;241.60;95.55;;;;;;;;;;4986410;28;20033;-77
2023/01/03 06:58:09;;;;;;;227.07;95.90;;;;;;;;;;4984403;28;20035;-77
2023/01/03 07:00:36;;;;;;;229.18;93.20;;;;;;;;;;4987151;28;20369;-77
2023/01/03 07:03:03;;;;;;;235.82;92.05;;;;;;;;;;4981483;28;20444;-77
2023/01/03 07:05:29;;;;;;;232.13;93.60;;;;;;;;;;4984588;28;20050;-77
2023/01/03 07:07:55;;;;;;;204.73;88.93;;;;;;;;;;4986056;28;20031;-77
2023/01/03 07:10:22;;;;;;;214.73;89.18;;;;;;;;;;4978313;28;20035;-78
2023/01/03 07:15:33;;;;;;;233.10;88.68;;;;;;;;;;4987756;28;20030;-76
2023/01/03 07:17:59;;;;;;;220.20;87.45;;;;;;;;;;4983603;28;20034;-77
2023/01/03 07:20:25;;;;;;;210.20;83.05;;;;;;;;;;4985964;28;20113;-77
2023/01/03 07:22:52;;;;;;;188.32;80.10;;;;;;;;;;4985249;28;20104;-78
2023/01/03 07:25:19;;;;;;;192.90;81.93;;;;;;;;;;5000322;28;20037;-77
2023/01/03 07:27:53;;;;;;;212.88;81.60;;;;;;;;;;4986600;28;20046;-77
2023/01/03 07:30:19;;;;;;;185.20;76.25;;;;;;;;;;4985602;28;20226;-77
2023/01/03 07:32:45;;;;;;;197.40;74.80;;;;;;;;;;4978426;28;20235;-78
2023/01/03 07:35:11;;;;;;;189.88;77.68;;;;;;;;;;4967442;28;20173;-78
2023/01/03 07:37:38;;;;;;;209.15;77.28;;;;;;;;;;4980798;28;20038;-77
2023/01/03 07:40:04;;;;;;;168.00;73.68;;;;;;;;;;4971407;28;20058;-78
2023/01/03 07:45:15;;;;;;;158.40;66.32;;;;;;;;;;4986443;28;20061;-78
2023/01/03 07:47:44;;;;;;;159.75;66.07;;;;;;;;;;4973696;28;20027;-78
2023/01/03 07:50:11;;;;;;;140.23;64.90;;;;;;;;;;4969885;28;20030;-78
2023/01/03 07:52:37;;;;;;;163.30;67.13;;;;;;;;;;4985170;28;20046;-80
2023/01/03 07:55:04;;;;;;;154.52;64.13;;;;;;;;;;4989048;28;20026;-80
2023/01/03 07:57:30;;;;;;;152.25;63.70;;;;;;;;;;4990708;28;20452;-79
2023/01/03 07:59:56;;;;;;;161.25;61.85;;;;;;;;;;4986389;28;20206;-79
2023/01/03 08:02:22;;;;;;;148.73;58.55;;;;;;;;;;4989395;28;20492;-78
2023/01/03 08:04:48;;;;;;;157.30;61.30;;;;;;;;;;4989620;28;20407;-78
2023/01/03 08:07:14;;;;;;;146.45;60.28;;;;;;;;;;4985473;28;20042;-78
2023/01/03 08:15:10;;;;;;;142.43;56.30;;;;;;;;;;4982446;28;20034;-78
2023/01/03 08:17:36;;;;;;;141.32;59.83;;;;;;;;;;4994553;28;20022;-77
2023/01/03 08:20:03;;;;;;;146.77;59.10;;;;;;;;;;4993198;28;20038;-77
2023/01/03 08:22:29;;;;;;;142.85;57.58;;;;;;;;;;4991731;28;20042;-78
2023/01/03 08:24:55;;;;;;;140.30;58.42;;;;;;;;;;4974779;28;20117;-78
2023/01/03 08:27:22;;;;;;;150.68;57.00;;;;;;;;;;4990491;28;20042;-78
2023/01/03 08:29:48;;;;;;;129.90;55.83;;;;;;;;;;4974353;28;20050;-78
2023/01/03 08:32:15;;;;;;;129.15;55.30;;;;;;;;;;4990108;28;20038;-77
2023/01/03 08:34:43;;;;;;;138.18;56.58;;;;;;;;;;4990565;28;20048;-78
2023/01/03 08:37:11;;;;;;;138.10;54.80;;;;;;;;;;4989161;28;20022;-79
2023/01/03 08:39:39;;;;;;;136.43;56.35;;;;;;;;;;4992076;28;20031;-77
2023/01/03 08:42:06;;;;;;;124.60;52.70;;;;;;;;;;4992092;28;20049;-77
2023/01/03 08:44:33;;;;;;;125.68;53.58;;;;;;;;;;4990185;28;20046;-77
2023/01/03 08:47:02;;;;;;;113.80;50.85;;;;;;;;;;4989892;28;20026;-77
2023/01/03 08:49:29;;;;;;;122.18;50.97;;;;;;;;;;4989325;28;20519;-77
2023/01/03 08:51:55;;;;;;;121.45;51.30;;;;;;;;;;4991158;28;20032;-78
2023/01/03 08:54:21;;;;;;;130.45;52.65;;;;;;;;;;4974504;28;20059;-79
2023/01/03 08:56:47;;;;;;;126.00;51.70;;;;;;;;;;4990644;28;20046;-78
2023/01/03 08:59:13;;;;;;;129.98;53.40;;;;;;;;;;4990435;28;20060;-79
2023/01/03 09:01:40;;;;;;;121.72;50.85;;;;;;;;;;4989120;28;20460;-79
2023/01/03 09:04:06;;;;;;;118.55;50.67;;;;;;;;;;4990289;28;20030;-79
2023/01/03 09:06:33;;;;;;;126.78;53.35;;;;;;;;;;4989046;28;20361;-78
2023/01/03 09:09:03;;;;;;;114.45;49.35;;;;;;;;;;4991179;28;20224;-78
2023/01/03 09:11:29;;;;;;;116.47;51.05;;;;;;;;;;4991419;28;20036;-79
2023/01/03 09:13:55;;;;;;;111.85;49.92;;;;;;;;;;4989817;28;20030;-77
2023/01/03 09:16:21;;;;;;;121.30;48.50;;;;;;;;;;4991832;28;20026;-78
2023/01/03 09:18:47;;;;;;;126.53;51.58;;;;;;;;;;4992256;28;20475;-79
2023/01/03 09:21:14;;;;;;;112.50;49.30;;;;;;;;;;4993321;28;20097;-79
2023/01/03 09:23:40;;;;;;;108.57;45.67;;;;;;;;;;4996149;28;20049;-80
2023/01/03 09:26:06;;;;;;;118.68;48.05;;;;;;;;;;4996263;28;20038;-79
2023/01/03 09:28:33;;;;;;;127.80;49.72;;;;;;;;;;5000288;28;20038;-80
2023/01/03 09:30:59;;;;;;;127.10;48.35;;;;;;;;;;4997688;28;20034;-79
2023/01/03 09:33:26;;;;;;;114.13;45.83;;;;;;;;;;5001237;28;20121;-80
2023/01/03 09:35:53;;;;;;;123.30;47.95;;;;;;;;;;5000636;28;20042;-78
2023/01/03 09:38:20;;;;;;;113.20;48.08;;;;;;;;;;5001783;28;20121;-80
2023/01/03 09:40:46;;;;;;;112.63;45.97;;;;;;;;;;4988633;28;20018;-79
2023/01/03 09:43:18;;;;;;;114.43;47.33;;;;;;;;;;5001225;28;20057;-80
2023/01/03 09:45:57;;;;;;;106.20;45.05;;;;;;;;;;5000364;28;20563;-80
2023/01/03 09:48:29;;;;;;;115.28;46.35;;;;;;;;;;5000598;28;20090;-78
2023/01/03 09:50:55;;;;;;;102.20;45.63;;;;;;;;;;4998945;28;20058;-78
2023/01/03 10:04:38;;;;;;;117.10;47.05;;;;;;;;;;4987037;28;20035;-77
2023/01/03 10:07:14;;;;;;;105.93;46.22;;;;;;;;;;4989990;28;20034;-77
2023/01/03 10:09:55;;;;;;;111.70;46.03;;;;;;;;;;4988748;28;20038;-77
2023/01/03 10:12:26;;;;;;;115.70;47.20;;;;;;;;;;4990249;28;20031;-77
2023/01/03 10:14:52;;;;;;;;;;;;;;;;;;4993422;28;20029;-77
2023/01/03 10:17:51;;;;;;;116.20;46.38;;;;;;;;;;4993041;28;20001;-77
2023/01/03 10:20:19;;;;;;;117.47;45.95;;;;;;;;;;4979757;28;20042;-78
2023/01/03 10:22:47;;;;;;;113.00;45.70;;;;;;;;;;4987248;28;20037;-77
2023/01/03 10:25:16;;;;;;;118.75;46.00;;;;;;;;;;4992417;28;20137;-77
2023/01/03 10:27:50;;;;;;;108.50;45.03;;;;;;;;;;4993880;28;20061;-77
2023/01/03 10:30:35;;;;;;;110.05;44.08;;;;;;;;;;4994531;28;20034;-77
2023/01/03 10:33:04;;;;;;;111.40;45.80;;;;;;;;;;4992701;28;20384;-78
2023/01/03 10:35:32;;;;;;;105.22;44.70;;;;;;;;;;4992759;28;20026;-79
2023/01/03 10:37:59;;;;;;;95.60;42.75;;;;;;;;;;4995535;28;20041;-78
2023/01/03 10:40:36;;;;;;;99.68;44.10;;;;;;;;;;4959412;28;20144;-77
2023/01/03 10:43:16;;;;;;;115.15;45.25;;;;;;;;;;4992907;28;20050;-76
2023/01/03 10:45:56;;;;;;;105.90;43.40;;;;;;;;;;4993534;28;20110;-76
2023/01/03 10:48:23;;;;;;;109.30;45.03;;;;;;;;;;4988808;28;20034;-77
2023/01/03 10:50:49;;;;;;;94.95;42.13;;;;;;;;;;4986360;28;20412;-76
2023/01/03 10:53:17;;;;;;;98.70;42.42;;;;;;;;;;4995589;28;20043;-77
2023/01/03 10:55:45;;;;;;;104.82;41.88;;;;;;;;;;4993132;28;20023;-78
2023/01/03 10:58:24;;;;;;;105.57;43.28;;;;;;;;;;4997768;28;20472;-77
2023/01/03 11:00:54;;;;;;;92.80;42.25;;;;;;;;;;5001309;28;20049;-75
2023/01/03 11:03:25;;;;;;;111.07;43.80;;;;;;;;;;4992944;28;20026;-77
2023/01/03 11:05:57;;;;;;;109.53;43.40;;;;;;;;;;4997547;28;20101;-77
2023/01/03 11:08:34;;;;;;;101.10;42.65;;;;;;;;;;4999153;28;20034;-76
2023/01/03 11:11:00;;;;;;;90.88;40.67;;;;;;;;;;4997280;28;20089;-77
2023/01/03 11:13:32;;;;;;;87.35;40.13;;;;;;;;;;4996953;28;20031;-76
2023/01/03 11:16:01;;;;;;;90.25;39.53;;;;;;;;;;4996307;28;20026;-78
2023/01/03 11:18:29;;;;;;;89.60;40.00;;;;;;;;;;4988765;28;20027;-78
2023/01/03 11:21:06;;;;;;;81.03;39.40;;;;;;;;;;4989046;28;20031;-76
2023/01/03 11:23:49;;;;;;;84.78;37.75;;;;;;;;;;4994137;28;20117;-76
2023/01/03 11:26:28;;;;;;;82.75;37.95;;;;;;;;;;4996334;28;20030;-80
2023/01/03 11:29:12;;;;;;;72.78;37.08;;;;;;;;;;4995447;28;20186;-78
2023/01/03 11:31:45;;;;;;;72.85;36.17;;;;;;;;;;4995781;28;20027;-78
2023/01/03 11:34:14;;;;;;;72.78;34.55;;;;;;;;;;4995717;28;20132;-78
2023/01/03 11:36:45;;;;;;;61.20;32.85;;;;;;;;;;4996939;28;20022;-77
2023/01/03 11:39:30;;;;;;;62.33;31.73;;;;;;;;;;4996127;28;20022;-77
2023/01/03 11:42:15;;;;;;;66.82;34.67;;;;;;;;;;4981162;28;20041;-78
2023/01/03 11:47:55;;;;;;;64.72;32.42;;;;;;;;;;4998199;28;20042;-78
2023/01/03 11:50:23;;;;;;;66.85;32.85;;;;;;;;;;4995821;28;20022;-78
2023/01/03 11:52:59;;;;;;;56.65;31.25;;;;;;;;;;4997388;28;20319;-77
2023/01/03 11:55:25;;;;;;;62.65;33.03;;;;;;;;;;4979655;28;20112;-78
2023/01/03 11:57:55;;;;;;;60.75;33.60;;;;;;;;;;4994463;28;20090;-78
2023/01/03 12:00:41;;;;;;;68.35;34.75;;;;;;;;;;4974842;28;20828;-79
2023/01/03 12:03:08;;;;;;;65.32;33.15;;;;;;;;;;4998699;28;20034;-78
2023/01/03 12:05:39;;;;;;;62.65;34.47;;;;;;;;;;4999329;28;20070;-78
2023/01/03 12:08:11;;;;;;;67.00;34.50;;;;;;;;;;4999393;28;20116;-77
2023/01/03 12:11:10;;;;;;;65.57;35.03;;;;;;;;;;4993053;28;20030;-78
2023/01/03 12:13:37;;;;;;;69.35;36.67;;;;;;;;;;4989002;28;20039;-77
2023/01/03 12:16:03;;;;;;;58.40;33.45;;;;;;;;;;4999059;28;20226;-77
2023/01/03 12:18:41;;;;;;;60.60;33.55;;;;;;;;;;5004475;28;20333;-78
2023/01/03 12:21:30;;;;;;;58.20;35.35;;;;;;;;;;4988804;28;20054;-78
2023/01/03 12:24:02;;;;;;;62.25;33.92;;;;;;;;;;4996848;28;20065;-78
2023/01/03 12:26:29;;;;;;;62.22;31.92;;;;;;;;;;5003765;28;20034;-78
2023/01/03 12:29:11;;;;;;;51.10;32.70;;;;;;;;;;5000654;28;20076;-78
2023/01/03 12:31:55;;;;;;;58.13;31.85;;;;;;;;;;4983280;28;20042;-77
2023/01/03 12:34:39;;;;;;;53.13;31.17;;;;;;;;;;4997611;28;20026;-77
2023/01/03 12:37:07;;;;;;;47.28;30.00;;;;;;;;;;4988539;28;20407;-76
2023/01/03 12:39:33;;;;;;;53.72;30.90;;;;;;;;;;4995992;28;20129;-78
2023/01/03 12:42:06;;;;;;;44.83;29.08;;;;;;;;;;4993579;28;20089;-78
2023/01/03 12:44:39;;;;;;;54.85;27.90;;;;;;;;;;4988774;28;20041;-79
2023/01/03 12:47:06;;;;;;;48.08;28.70;;;;;;;;;;4981458;28;20042;-79
2023/01/03 12:49:37;;;;;;;46.20;28.25;;;;;;;;;;4981370;28;20395;-77
2023/01/03 12:52:03;;;;;;;52.20;27.67;;;;;;;;;;4984358;28;20121;-78
2023/01/03 12:54:37;;;;;;;45.25;27.98;;;;;;;;;;4993271;28;20558;-78
2023/01/03 12:57:10;;;;;;;49.97;28.08;;;;;;;;;;4989218;28;20041;-75
2023/01/03 12:59:39;;;;;;;46.70;25.25;;;;;;;;;;4985610;28;20034;-81
2023/01/03 13:02:23;;;;;;;44.28;24.55;;;;;;;;;;4984970;28;20027;-77
2023/01/03 13:04:52;;;;;;;38.92;24.05;;;;;;;;;;4979547;28;20036;-79
2023/01/03 13:07:24;;;;;;;35.08;23.00;;;;;;;;;;4984349;28;20034;-78
2023/01/03 13:09:57;;;;;;;38.17;23.05;;;;;;;;;;4985162;28;20089;-77
2023/01/03 13:12:28;;;;;;;34.35;20.67;;;;;;;;;;4980147;28;20034;-77
2023/01/03 13:14:54;;;;;;;;;;;;;;;;;;4985033;28;20018;-75
2023/01/03 13:17:24;;;;;;;27.77;18.35;;;;;;;;;;4969912;28;19956;-78
2023/01/03 13:19:54;;;;;;;29.48;18.35;;;;;;;;;;4985231;28;20048;-78
2023/01/03 13:22:22;;;;;;;33.30;18.10;;;;;;;;;;4984226;28;20048;-75
2023/01/03 13:25:08;;;;;;;31.13;16.27;;;;;;;;;;4984080;28;20046;-75
2023/01/03 13:27:35;;;;;;;28.70;15.60;;;;;;;;;;4951849;28;20038;-73
2023/01/03 13:30:03;;;;;;;22.88;13.73;;;;;;;;;;4977085;28;20034;-76
2023/01/03 13:32:30;;;;;;;23.50;14.27;;;;;;;;;;4970438;28;20403;-75
2023/01/03 13:34:56;;;;;;;22.35;14.40;;;;;;;;;;4975788;28;20518;-74
2023/01/03 13:37:26;;;;;;;23.73;14.18;;;;;;;;;;4979449;28;20226;-75
2023/01/03 13:40:02;;;;;;;24.15;13.35;;;;;;;;;;4975688;28;20032;-75
2023/01/03 13:42:30;;;;;;;18.52;12.05;;;;;;;;;;4973254;28;20026;-74
2023/01/03 13:45:14;;;;;;;23.80;12.82;;;;;;;;;;4975881;28;20029;-75
2023/01/03 13:47:42;;;;;;;21.17;12.60;;;;;;;;;;4978298;28;20038;-76
2023/01/03 13:50:41;;;;;;;17.38;11.50;;;;;;;;;;4979557;28;20150;-75
2023/01/03 13:53:10;;;;;;;20.50;11.48;;;;;;;;;;4949674;28;20485;-75
2023/01/03 13:55:43;;;;;;;22.73;11.88;;;;;;;;;;4980144;28;20022;-75
2023/01/03 13:58:22;;;;;;;21.77;12.35;;;;;;;;;;4992524;28;20037;-75
2023/01/03 14:00:48;;;;;;;18.73;11.60;;;;;;;;;;4976794;28;20112;-74
2023/01/03 14:03:27;;;;;;;24.00;12.85;;;;;;;;;;4976090;28;20314;-74
2023/01/03 14:06:19;;;;;;;26.30;11.85;;;;;;;;;;4990876;28;20506;-74
2023/01/03 14:09:03;;;;;;;18.42;11.88;;;;;;;;;;4992345;28;20038;-75
2023/01/03 14:11:49;;;;;;;20.85;13.30;;;;;;;;;;4971997;28;20125;-73
2023/01/03 14:14:18;;;;;;;33.72;14.63;;;;;;;;;;4985278;28;20515;-73
2023/01/03 14:16:48;;;;;;;22.67;12.25;;;;;;;;;;4983428;28;20026;-74
2023/01/03 14:19:31;;;;;;;23.27;12.33;;;;;;;;;;4998834;28;20026;-74
2023/01/03 14:21:59;;;;;;;20.25;12.65;;;;;;;;;;4989576;28;20347;-75
2023/01/03 14:24:27;;;;;;;24.17;14.13;;;;;;;;;;4983406;28;20018;-75
2023/01/03 14:26:53;;;;;;;19.05;12.90;;;;;;;;;;4980564;28;20137;-76
2023/01/03 14:29:21;;;;;;;22.95;13.05;;;;;;;;;;4988900;28;20503;-77
2023/01/03 14:31:49;;;;;;;20.67;12.93;;;;;;;;;;4980506;28;20069;-76
2023/01/03 14:34:25;;;;;;;30.35;14.85;;;;;;;;;;4980925;28;20092;-77
2023/01/03 14:36:51;;;;;;;24.98;12.52;;;;;;;;;;4980585;28;20027;-75
2023/01/03 14:39:21;;;;;;;18.58;11.95;;;;;;;;;;4978463;28;20033;-74
2023/01/03 14:41:48;;;;;;;23.02;12.25;;;;;;;;;;4996475;28;20045;-76
2023/01/03 14:44:15;;;;;;;19.08;11.48;;;;;;;;;;4980206;28;20030;-75
2023/01/03 14:47:03;;;;;;;23.77;12.38;;;;;;;;;;4992172;28;20035;-75
2023/01/03 14:49:40;;;;;;;17.80;10.98;;;;;;;;;;4986426;28;20039;-76
2023/01/03 14:52:24;;;;;;;25.13;10.40;;;;;;;;;;4972280;28;20035;-76
2023/01/03 14:54:52;;;;;;;19.13;11.98;;;;;;;;;;4982691;28;20037;-76
2023/01/03 14:57:20;;;;;;;22.83;11.00;;;;;;;;;;4982904;28;20026;-76
2023/01/03 14:59:46;;;;;;;31.30;12.13;;;;;;;;;;4982860;28;20057;-76
2023/01/03 15:02:13;;;;;;;24.23;10.82;;;;;;;;;;4981849;28;20201;-76
2023/01/03 15:04:43;;;;;;;18.13;10.52;;;;;;;;;;4983099;28;20569;-78
2023/01/03 15:07:24;;;;;;;22.10;10.05;;;;;;;;;;4977264;28;20156;-75
2023/01/03 15:10:00;;;;;;;24.20;11.27;;;;;;;;;;4984348;28;20030;-75
2023/01/03 15:12:27;;;;;;;16.45;10.40;;;;;;;;;;4983187;28;20176;-76
2023/01/03 15:14:53;;;;;;;20.52;10.80;;;;;;;;;;4982774;28;20039;-76
2023/01/03 15:17:22;;;;;;;20.48;10.07;;;;;;;;;;4981470;28;20023;-78
2023/01/03 15:19:55;;;;;;;25.35;10.35;;;;;;;;;;4984623;28;20510;-75
2023/01/03 15:22:23;;;;;;;19.02;9.75;;;;;;;;;;4981232;28;20025;-73
2023/01/03 15:25:09;;;;;;;22.50;10.60;;;;;;;;;;4970712;28;20109;-74
2023/01/03 15:27:38;;;;;;;16.17;9.43;;;;;;;;;;4992948;28;20109;-75
2023/01/03 15:30:13;;;;;;;17.25;10.43;;;;;;;;;;4996136;28;20042;-74
2023/01/03 15:32:46;;;;;;;20.95;9.10;;;;;;;;;;4982705;28;20030;-74
2023/01/03 15:35:20;;;;;;;19.13;9.55;;;;;;;;;;4984713;28;20030;-78
2023/01/03 15:37:46;;;;;;;20.27;9.45;;;;;;;;;;4986302;28;20551;-78
2023/01/03 15:40:13;;;;;;;19.75;9.45;;;;;;;;;;5000807;28;20655;-78
2023/01/03 15:45:28;;;;;;;19.65;8.57;;;;;;;;;;4999859;28;20065;-80